sensor_id;sensor_type;location;lat;lon;timestamp;temperature;humidity
7564;DHT22;3823;53.586;10.040;2023-08-06T04:02:19;16.30;1.00
7564;DHT22;3823;53.586;10.040;2023-08-06T04:04:45;16.20;1.00
7564;DHT22;3823;53.586;10.040;2023-08-06T04:07:10;16.10;1.00
7564;DHT22;3823;53.586;10.040;2023-08-06T04:09:52;16.20;1.00
7564;DHT22;3823;53.586;10.040;2023-08-06T04:12:18;16.20;1.00
7564;DHT22;3823;53.586;10.040;2023-08-06T04:14:43;16.20;1.00
7564;DHT22;3823;53.586;10.040;2023-08-06T04:17:09;16.10;1.00
7564;DHT22;3823;53.586;10.040;2023-08-06T04:19:34;16.00;1.00
7564;DHT22;3823;53.586;10.040;2023-08-06T04:22:00;16.00;1.00
7564;DHT22;3823;53.586;10.040;2023-08-06T04:24:25;16.10;1.00
7564;DHT22;3823;53.586;10.040;2023-08-06T04:26:51;16.10;1.00
7564;DHT22;3823;53.586;10.040;2023-08-06T04:29:16;16.20;1.00
7564;DHT22;3823;53.586;10.040;2023-08-06T04:31:42;16.10;1.00
7564;DHT22;3823;53.586;10.040;2023-08-06T04:34:07;16.00;1.00
7564;DHT22;3823;53.586;10.040;2023-08-06T04:36:34;16.00;1.00
7564;DHT22;3823;53.586;10.040;2023-08-06T04:39:00;15.90;1.00
7564;DHT22;3823;53.586;10.040;2023-08-06T04:41:25;16.00;1.70
7564;DHT22;3823;53.586;10.040;2023-08-06T04:43:51;16.00;1.00
7564;DHT22;3823;53.586;10.040;2023-08-06T04:46:16;15.90;1.00
7564;DHT22;3823;53.586;10.040;2023-08-06T04:48:42;15.80;1.00
7564;DHT22;3823;53.586;10.040;2023-08-06T04:51:07;15.80;1.00
7564;DHT22;3823;53.586;10.040;2023-08-06T04:53:33;15.70;6.00
7564;DHT22;3823;53.586;10.040;2023-08-06T04:55:58;15.80;11.50
7564;DHT22;3823;53.586;10.040;2023-08-06T04:58:24;15.70;3.70
7564;DHT22;3823;53.586;10.040;2023-08-06T05:00:49;15.60;9.30
7564;DHT22;3823;53.586;10.040;2023-08-06T05:03:15;15.70;17.20
7564;DHT22;3823;53.586;10.040;2023-08-06T05:05:41;15.80;17.10
7564;DHT22;3823;53.586;10.040;2023-08-06T05:08:07;15.80;8.00
7564;DHT22;3823;53.586;10.040;2023-08-06T05:10:32;15.70;14.70
7564;DHT22;3823;53.586;10.040;2023-08-06T05:12:58;15.70;13.20
7564;DHT22;3823;53.586;10.040;2023-08-06T05:15:23;15.70;15.20
7564;DHT22;3823;53.586;10.040;2023-08-06T05:17:50;15.70;10.40
7564;DHT22;3823;53.586;10.040;2023-08-06T05:20:16;15.70;19.20
7564;DHT22;3823;53.586;10.040;2023-08-06T05:22:43;15.80;15.80
7564;DHT22;3823;53.586;10.040;2023-08-06T05:25:08;15.80;16.10
7564;DHT22;3823;53.586;10.040;2023-08-06T05:27:34;15.90;14.90
7564;DHT22;3823;53.586;10.040;2023-08-06T05:29:59;15.80;9.50
7564;DHT22;3823;53.586;10.040;2023-08-06T05:32:25;15.80;22.10
7564;DHT22;3823;53.586;10.040;2023-08-06T05:34:51;16.00;25.90
7564;DHT22;3823;53.586;10.040;2023-08-06T05:37:16;16.10;15.00
7564;DHT22;3823;53.586;10.040;2023-08-06T05:39:42;16.10;17.40
7564;DHT22;3823;53.586;10.040;2023-08-06T05:42:07;16.20;15.90
7564;DHT22;3823;53.586;10.040;2023-08-06T05:44:33;16.30;1.00
7564;DHT22;3823;53.586;10.040;2023-08-06T05:46:58;16.30;1.30
7564;DHT22;3823;53.586;10.040;2023-08-06T05:49:24;16.30;1.00
7564;DHT22;3823;53.586;10.040;2023-08-06T05:51:49;16.30;1.00
7564;DHT22;3823;53.586;10.040;2023-08-06T05:54:15;16.40;1.00
7564;DHT22;3823;53.586;10.040;2023-08-06T05:56:41;16.40;1.00
7564;DHT22;3823;53.586;10.040;2023-08-06T05:59:06;16.40;1.00
7564;DHT22;3823;53.586;10.040;2023-08-06T06:01:31;16.40;1.00
7564;DHT22;3823;53.586;10.040;2023-08-06T06:03:57;16.50;1.00
7564;DHT22;3823;53.586;10.040;2023-08-06T06:06:23;16.30;1.00
7564;DHT22;3823;53.586;10.040;2023-08-06T06:08:48;16.30;1.00
7564;DHT22;3823;53.586;10.040;2023-08-06T06:11:14;16.20;1.00
7564;DHT22;3823;53.586;10.040;2023-08-06T06:13:39;16.30;16.00
7564;DHT22;3823;53.586;10.040;2023-08-06T06:16:05;16.40;21.90
7564;DHT22;3823;53.586;10.040;2023-08-06T06:18:30;16.40;1.00
7564;DHT22;3823;53.586;10.040;2023-08-06T06:20:56;16.40;1.00
7564;DHT22;3823;53.586;10.040;2023-08-06T06:23:21;16.50;1.00
7564;DHT22;3823;53.586;10.040;2023-08-06T06:25:48;16.50;1.00
7564;DHT22;3823;53.586;10.040;2023-08-06T06:28:14;16.50;1.00
7564;DHT22;3823;53.586;10.040;2023-08-06T06:30:42;16.60;1.00
7564;DHT22;3823;53.586;10.040;2023-08-06T06:33:08;16.50;1.00
7564;DHT22;3823;53.586;10.040;2023-08-06T06:35:33;16.60;1.00
7564;DHT22;3823;53.586;10.040;2023-08-06T06:37:59;16.60;1.00
7564;DHT22;3823;53.586;10.040;2023-08-06T06:40:25;16.70;1.00
7564;DHT22;3823;53.586;10.040;2023-08-06T06:42:51;16.70;1.00
7564;DHT22;3823;53.586;10.040;2023-08-06T06:45:16;16.80;1.00
7564;DHT22;3823;53.586;10.040;2023-08-06T06:47:42;16.70;1.00
7564;DHT22;3823;53.586;10.040;2023-08-06T06:50:08;16.80;1.00
7564;DHT22;3823;53.586;10.040;2023-08-06T06:52:33;16.80;1.00
7564;DHT22;3823;53.586;10.040;2023-08-06T06:54:59;16.80;1.00
7564;DHT22;3823;53.586;10.040;2023-08-06T06:57:24;16.90;1.00
7564;DHT22;3823;53.586;10.040;2023-08-06T06:59:50;16.90;1.00
7564;DHT22;3823;53.586;10.040;2023-08-06T07:02:16;16.80;1.00
7564;DHT22;3823;53.586;10.040;2023-08-06T07:04:41;16.90;1.00
7564;DHT22;3823;53.586;10.040;2023-08-06T07:07:07;16.80;1.00
7564;DHT22;3823;53.586;10.040;2023-08-06T07:09:32;16.90;1.00
7564;DHT22;3823;53.586;10.040;2023-08-06T07:11:58;16.90;1.00
7564;DHT22;3823;53.586;10.040;2023-08-06T07:14:25;17.00;1.00
7564;DHT22;3823;53.586;10.040;2023-08-06T07:16:51;17.00;1.00
7564;DHT22;3823;53.586;10.040;2023-08-06T07:19:16;17.10;1.00
7564;DHT22;3823;53.586;10.040;2023-08-06T07:21:42;17.10;1.00
7564;DHT22;3823;53.586;10.040;2023-08-06T07:24:07;17.10;1.00
7564;DHT22;3823;53.586;10.040;2023-08-06T07:26:33;17.20;1.00
7564;DHT22;3823;53.586;10.040;2023-08-06T07:28:58;17.30;1.00
7564;DHT22;3823;53.586;10.040;2023-08-06T07:31:24;17.10;1.00
7564;DHT22;3823;53.586;10.040;2023-08-06T07:33:49;17.10;1.00
7564;DHT22;3823;53.586;10.040;2023-08-06T07:36:15;17.30;1.00
7564;DHT22;3823;53.586;10.040;2023-08-06T07:38:41;17.40;1.00
7564;DHT22;3823;53.586;10.040;2023-08-06T07:41:07;17.50;1.00
7564;DHT22;3823;53.586;10.040;2023-08-06T07:43:33;17.50;1.00
7564;DHT22;3823;53.586;10.040;2023-08-06T07:45:59;17.50;1.00
7564;DHT22;3823;53.586;10.040;2023-08-06T07:48:26;17.40;1.00
7564;DHT22;3823;53.586;10.040;2023-08-06T07:50:53;17.30;1.00
7564;DHT22;3823;53.586;10.040;2023-08-06T07:53:22;17.30;1.00
7564;DHT22;3823;53.586;10.040;2023-08-06T07:55:52;17.40;1.00
7564;DHT22;3823;53.586;10.040;2023-08-06T07:58:19;17.40;1.00
7564;DHT22;3823;53.586;10.040;2023-08-06T08:00:44;17.50;1.00
7564;DHT22;3823;53.586;10.040;2023-08-06T08:03:11;17.50;1.00
7564;DHT22;3823;53.586;10.040;2023-08-06T08:05:38;17.50;1.00
7564;DHT22;3823;53.586;10.040;2023-08-06T08:08:04;17.50;1.00
7564;DHT22;3823;53.586;10.040;2023-08-06T08:10:31;17.50;1.00
7564;DHT22;3823;53.586;10.040;2023-08-06T08:12:57;17.60;1.00
7564;DHT22;3823;53.586;10.040;2023-08-06T08:15:22;17.70;1.00
7564;DHT22;3823;53.586;10.040;2023-08-06T08:17:48;17.70;1.00
7564;DHT22;3823;53.586;10.040;2023-08-06T08:20:15;17.70;1.00
7564;DHT22;3823;53.586;10.040;2023-08-06T08:22:40;17.80;1.00
7564;DHT22;3823;53.586;10.040;2023-08-06T08:25:06;17.80;1.00
7564;DHT22;3823;53.586;10.040;2023-08-06T08:27:31;17.80;1.00
7564;DHT22;3823;53.586;10.040;2023-08-06T08:29:57;17.70;1.00
7564;DHT22;3823;53.586;10.040;2023-08-06T08:32:23;17.70;1.00
7564;DHT22;3823;53.586;10.040;2023-08-06T08:34:49;17.80;1.00
7564;DHT22;3823;53.586;10.040;2023-08-06T08:37:14;17.80;1.00
7564;DHT22;3823;53.586;10.040;2023-08-06T08:39:40;17.90;1.00
7564;DHT22;3823;53.586;10.040;2023-08-06T08:42:06;17.90;1.00
7564;DHT22;3823;53.586;10.040;2023-08-06T08:44:32;17.90;1.00
7564;DHT22;3823;53.586;10.040;2023-08-06T08:46:59;17.90;1.00
7564;DHT22;3823;53.586;10.040;2023-08-06T08:49:26;17.90;1.00
7564;DHT22;3823;53.586;10.040;2023-08-06T08:51:53;17.90;1.00
7564;DHT22;3823;53.586;10.040;2023-08-06T08:54:21;17.90;1.00
7564;DHT22;3823;53.586;10.040;2023-08-06T08:56:48;17.90;1.00
7564;DHT22;3823;53.586;10.040;2023-08-06T08:59:13;18.00;1.00
7564;DHT22;3823;53.586;10.040;2023-08-06T09:01:40;18.00;1.00
7564;DHT22;3823;53.586;10.040;2023-08-06T09:04:06;17.90;1.00
7564;DHT22;3823;53.586;10.040;2023-08-06T09:06:36;17.90;1.00
7564;DHT22;3823;53.586;10.040;2023-08-06T09:09:11;17.90;1.00
7564;DHT22;3823;53.586;10.040;2023-08-06T09:11:44;17.80;1.00
7564;DHT22;3823;53.586;10.040;2023-08-06T09:14:11;17.80;1.00
7564;DHT22;3823;53.586;10.040;2023-08-06T09:16:37;17.80;1.00
7564;DHT22;3823;53.586;10.040;2023-08-06T09:19:09;17.80;1.00
7564;DHT22;3823;53.586;10.040;2023-08-06T09:21:39;17.80;1.00
7564;DHT22;3823;53.586;10.040;2023-08-06T09:24:12;17.80;1.00
7564;DHT22;3823;53.586;10.040;2023-08-06T09:26:39;17.80;1.00
7564;DHT22;3823;53.586;10.040;2023-08-06T09:29:05;17.80;1.00
7564;DHT22;3823;53.586;10.040;2023-08-06T09:31:42;17.80;1.00
7564;DHT22;3823;53.586;10.040;2023-08-06T09:34:15;17.80;1.00
7564;DHT22;3823;53.586;10.040;2023-08-06T09:36:51;17.80;1.00
7564;DHT22;3823;53.586;10.040;2023-08-06T09:39:18;17.70;1.00
7564;DHT22;3823;53.586;10.040;2023-08-06T09:41:45;17.60;1.00
7564;DHT22;3823;53.586;10.040;2023-08-06T09:44:19;17.60;1.00
7564;DHT22;3823;53.586;10.040;2023-08-06T09:46:52;17.60;1.00
7564;DHT22;3823;53.586;10.040;2023-08-06T09:49:19;17.50;1.00
7564;DHT22;3823;53.586;10.040;2023-08-06T09:51:46;17.60;1.00
7564;DHT22;3823;53.586;10.040;2023-08-06T09:54:16;17.60;1.00
7564;DHT22;3823;53.586;10.040;2023-08-06T09:56:42;17.60;1.00
7564;DHT22;3823;53.586;10.040;2023-08-06T09:59:08;17.70;1.00
7564;DHT22;3823;53.586;10.040;2023-08-06T10:01:35;17.70;1.00
7564;DHT22;3823;53.586;10.040;2023-08-06T10:04:05;17.80;1.00
7564;DHT22;3823;53.586;10.040;2023-08-06T10:06:34;17.80;1.00
7564;DHT22;3823;53.586;10.040;2023-08-06T10:09:02;17.80;1.00
7564;DHT22;3823;53.586;10.040;2023-08-06T10:11:28;17.80;1.00
7564;DHT22;3823;53.586;10.040;2023-08-06T10:13:58;17.90;1.00
7564;DHT22;3823;53.586;10.040;2023-08-06T10:16:26;17.90;1.00
7564;DHT22;3823;53.586;10.040;2023-08-06T10:18:52;17.90;1.00
7564;DHT22;3823;53.586;10.040;2023-08-06T10:21:19;17.90;1.00
7564;DHT22;3823;53.586;10.040;2023-08-06T10:23:54;17.90;1.00
7564;DHT22;3823;53.586;10.040;2023-08-06T10:26:20;17.90;1.00
7564;DHT22;3823;53.586;10.040;2023-08-06T10:28:45;17.80;1.00
7564;DHT22;3823;53.586;10.040;2023-08-06T10:31:11;17.90;1.00
7564;DHT22;3823;53.586;10.040;2023-08-06T10:33:44;17.90;2.70
7564;DHT22;3823;53.586;10.040;2023-08-06T10:36:11;17.90;1.00
7564;DHT22;3823;53.586;10.040;2023-08-06T10:38:47;17.90;1.00
7564;DHT22;3823;53.586;10.040;2023-08-06T10:41:27;17.90;1.00
7564;DHT22;3823;53.586;10.040;2023-08-06T10:44:05;17.70;1.00
7564;DHT22;3823;53.586;10.040;2023-08-06T10:46:32;17.70;1.00
7564;DHT22;3823;53.586;10.040;2023-08-06T10:48:58;17.60;1.00
7564;DHT22;3823;53.586;10.040;2023-08-06T10:51:24;17.50;1.00
7564;DHT22;3823;53.586;10.040;2023-08-06T10:53:50;17.50;1.00
7564;DHT22;3823;53.586;10.040;2023-08-06T10:56:18;17.60;8.00
7564;DHT22;3823;53.586;10.040;2023-08-06T10:58:48;17.60;1.00
7564;DHT22;3823;53.586;10.040;2023-08-06T11:01:13;17.70;1.00
7564;DHT22;3823;53.586;10.040;2023-08-06T11:03:40;17.70;1.00
7564;DHT22;3823;53.586;10.040;2023-08-06T11:06:09;17.60;2.00
7564;DHT22;3823;53.586;10.040;2023-08-06T11:08:36;17.70;1.00
7564;DHT22;3823;53.586;10.040;2023-08-06T11:13:36;17.60;1.00
7564;DHT22;3823;53.586;10.040;2023-08-06T11:16:02;17.70;1.00
7564;DHT22;3823;53.586;10.040;2023-08-06T11:18:28;17.70;1.00
7564;DHT22;3823;53.586;10.040;2023-08-06T11:20:54;17.80;1.00
7564;DHT22;3823;53.586;10.040;2023-08-06T11:23:19;17.80;1.00
7564;DHT22;3823;53.586;10.040;2023-08-06T11:25:45;17.80;1.00
7564;DHT22;3823;53.586;10.040;2023-08-06T11:28:12;17.90;1.30
7564;DHT22;3823;53.586;10.040;2023-08-06T11:30:38;17.90;1.40
7564;DHT22;3823;53.586;10.040;2023-08-06T11:33:06;18.10;1.00
7564;DHT22;3823;53.586;10.040;2023-08-06T11:35:34;18.10;1.00
7564;DHT22;3823;53.586;10.040;2023-08-06T11:38:00;18.10;1.00
7564;DHT22;3823;53.586;10.040;2023-08-06T11:40:26;18.00;1.00
7564;DHT22;3823;53.586;10.040;2023-08-06T11:42:52;18.00;1.00
7564;DHT22;3823;53.586;10.040;2023-08-06T11:45:22;18.00;1.00
7564;DHT22;3823;53.586;10.040;2023-08-06T11:47:50;18.00;1.00
7564;DHT22;3823;53.586;10.040;2023-08-06T11:50:27;18.00;1.00
7564;DHT22;3823;53.586;10.040;2023-08-06T11:52:56;18.10;1.00
7564;DHT22;3823;53.586;10.040;2023-08-06T11:55:24;18.00;1.00
7564;DHT22;3823;53.586;10.040;2023-08-06T11:57:50;18.10;1.00
7564;DHT22;3823;53.586;10.040;2023-08-06T12:00:16;18.10;1.00
7564;DHT22;3823;53.586;10.040;2023-08-06T12:02:44;18.10;1.00
7564;DHT22;3823;53.586;10.040;2023-08-06T12:07:48;18.00;1.00
7564;DHT22;3823;53.586;10.040;2023-08-06T12:10:14;18.10;1.00
7564;DHT22;3823;53.586;10.040;2023-08-06T12:12:40;18.10;1.00
7564;DHT22;3823;53.586;10.040;2023-08-06T12:15:07;18.20;1.00
7564;DHT22;3823;53.586;10.040;2023-08-06T12:17:34;18.20;1.00
7564;DHT22;3823;53.586;10.040;2023-08-06T12:20:00;18.20;1.00
7564;DHT22;3823;53.586;10.040;2023-08-06T12:22:26;18.30;1.00
7564;DHT22;3823;53.586;10.040;2023-08-06T12:24:52;18.40;1.00
7564;DHT22;3823;53.586;10.040;2023-08-06T12:27:18;18.40;1.00
7564;DHT22;3823;53.586;10.040;2023-08-06T12:29:48;18.50;1.00
7564;DHT22;3823;53.586;10.040;2023-08-06T12:32:14;18.50;1.00
7564;DHT22;3823;53.586;10.040;2023-08-06T12:34:43;18.60;1.00
7564;DHT22;3823;53.586;10.040;2023-08-06T12:37:09;18.60;1.00
7564;DHT22;3823;53.586;10.040;2023-08-06T12:39:35;18.60;1.00
7564;DHT22;3823;53.586;10.040;2023-08-06T12:42:03;18.60;1.00
7564;DHT22;3823;53.586;10.040;2023-08-06T12:44:29;18.60;1.00
7564;DHT22;3823;53.586;10.040;2023-08-06T12:46:54;18.70;1.00
7564;DHT22;3823;53.586;10.040;2023-08-06T12:49:20;18.80;1.00
7564;DHT22;3823;53.586;10.040;2023-08-06T12:51:47;18.80;1.00
7564;DHT22;3823;53.586;10.040;2023-08-06T12:54:13;18.80;1.00
7564;DHT22;3823;53.586;10.040;2023-08-06T12:56:38;18.90;1.00
7564;DHT22;3823;53.586;10.040;2023-08-06T12:59:04;19.00;1.00
7564;DHT22;3823;53.586;10.040;2023-08-06T13:01:29;19.00;1.00
7564;DHT22;3823;53.586;10.040;2023-08-06T13:03:55;19.10;1.00
7564;DHT22;3823;53.586;10.040;2023-08-06T13:06:20;19.20;1.00
7564;DHT22;3823;53.586;10.040;2023-08-06T13:08:46;19.30;1.00
7564;DHT22;3823;53.586;10.040;2023-08-06T13:11:11;19.40;1.00
7564;DHT22;3823;53.586;10.040;2023-08-06T13:13:37;19.50;1.00
7564;DHT22;3823;53.586;10.040;2023-08-06T13:16:03;19.50;1.00
7564;DHT22;3823;53.586;10.040;2023-08-06T13:18:28;19.40;1.00
7564;DHT22;3823;53.586;10.040;2023-08-06T13:20:54;19.50;1.00
7564;DHT22;3823;53.586;10.040;2023-08-06T13:23:20;19.50;1.00
7564;DHT22;3823;53.586;10.040;2023-08-06T13:25:46;19.60;1.00
7564;DHT22;3823;53.586;10.040;2023-08-06T13:28:12;19.70;1.00
7564;DHT22;3823;53.586;10.040;2023-08-06T13:30:39;19.80;1.00
7564;DHT22;3823;53.586;10.040;2023-08-06T13:33:10;19.90;1.00
7564;DHT22;3823;53.586;10.040;2023-08-06T13:35:36;19.90;1.00
7564;DHT22;3823;53.586;10.040;2023-08-06T13:38:02;20.00;1.00
7564;DHT22;3823;53.586;10.040;2023-08-06T13:40:33;20.10;1.00
7564;DHT22;3823;53.586;10.040;2023-08-06T13:42:59;20.10;1.00
7564;DHT22;3823;53.586;10.040;2023-08-06T13:45:24;20.20;1.00
7564;DHT22;3823;53.586;10.040;2023-08-06T13:47:50;20.20;1.00
7564;DHT22;3823;53.586;10.040;2023-08-06T13:50:16;20.30;1.00
7564;DHT22;3823;53.586;10.040;2023-08-06T13:52:41;20.40;1.00
7564;DHT22;3823;53.586;10.040;2023-08-06T13:55:07;20.30;99.90
7564;DHT22;3823;53.586;10.040;2023-08-06T13:57:34;20.40;99.90
7564;DHT22;3823;53.586;10.040;2023-08-06T14:00:00;20.40;99.90
7564;DHT22;3823;53.586;10.040;2023-08-06T14:02:26;20.30;99.90
7564;DHT22;3823;53.586;10.040;2023-08-06T14:04:53;20.30;99.90
7564;DHT22;3823;53.586;10.040;2023-08-06T14:07:18;20.30;99.90
7564;DHT22;3823;53.586;10.040;2023-08-06T14:09:44;20.30;99.90
7564;DHT22;3823;53.586;10.040;2023-08-06T14:12:09;20.30;99.90
7564;DHT22;3823;53.586;10.040;2023-08-06T14:14:35;20.30;99.90
7564;DHT22;3823;53.586;10.040;2023-08-06T14:17:01;20.30;99.90
7564;DHT22;3823;53.586;10.040;2023-08-06T14:19:27;20.40;99.90
7564;DHT22;3823;53.586;10.040;2023-08-06T14:21:52;20.40;99.90
7564;DHT22;3823;53.586;10.040;2023-08-06T14:24:18;20.30;99.90
7564;DHT22;3823;53.586;10.040;2023-08-06T14:26:44;20.30;99.90
7564;DHT22;3823;53.586;10.040;2023-08-06T14:29:09;20.40;99.90
7564;DHT22;3823;53.586;10.040;2023-08-06T14:31:35;20.40;99.90
7564;DHT22;3823;53.586;10.040;2023-08-06T14:34:00;20.40;99.90
7564;DHT22;3823;53.586;10.040;2023-08-06T14:36:26;20.40;99.90
7564;DHT22;3823;53.586;10.040;2023-08-06T14:38:51;20.30;99.90
7564;DHT22;3823;53.586;10.040;2023-08-06T14:41:17;20.30;99.90
7564;DHT22;3823;53.586;10.040;2023-08-06T14:43:43;20.40;99.90
7564;DHT22;3823;53.586;10.040;2023-08-06T14:46:08;20.40;99.90
7564;DHT22;3823;53.586;10.040;2023-08-06T14:48:34;20.40;99.90
7564;DHT22;3823;53.586;10.040;2023-08-06T14:50:59;20.40;99.90
7564;DHT22;3823;53.586;10.040;2023-08-06T14:53:25;20.40;99.90
7564;DHT22;3823;53.586;10.040;2023-08-06T14:55:50;20.40;99.90
7564;DHT22;3823;53.586;10.040;2023-08-06T14:58:16;20.30;99.90
7564;DHT22;3823;53.586;10.040;2023-08-06T15:00:41;20.30;99.90
7564;DHT22;3823;53.586;10.040;2023-08-06T15:03:07;20.20;99.90
7564;DHT22;3823;53.586;10.040;2023-08-06T15:05:32;20.10;99.90
7564;DHT22;3823;53.586;10.040;2023-08-06T15:07:58;20.10;99.90
7564;DHT22;3823;53.586;10.040;2023-08-06T15:10:23;20.00;99.90
7564;DHT22;3823;53.586;10.040;2023-08-06T15:12:49;20.00;99.90
7564;DHT22;3823;53.586;10.040;2023-08-06T15:15:15;19.90;99.90
7564;DHT22;3823;53.586;10.040;2023-08-06T15:17:40;19.90;99.90
7564;DHT22;3823;53.586;10.040;2023-08-06T15:20:06;19.80;99.90
7564;DHT22;3823;53.586;10.040;2023-08-06T15:22:32;19.60;99.90
7564;DHT22;3823;53.586;10.040;2023-08-06T15:25:01;19.50;99.90
7564;DHT22;3823;53.586;10.040;2023-08-06T15:27:28;19.50;99.90
7564;DHT22;3823;53.586;10.040;2023-08-06T15:29:56;19.40;99.90
7564;DHT22;3823;53.586;10.040;2023-08-06T15:32:22;19.30;99.90
7564;DHT22;3823;53.586;10.040;2023-08-06T15:34:48;19.30;99.90
7564;DHT22;3823;53.586;10.040;2023-08-06T15:37:14;19.30;99.90
7564;DHT22;3823;53.586;10.040;2023-08-06T15:39:39;19.30;99.90
7564;DHT22;3823;53.586;10.040;2023-08-06T15:42:06;19.30;99.90
7564;DHT22;3823;53.586;10.040;2023-08-06T15:44:31;19.40;99.90
7564;DHT22;3823;53.586;10.040;2023-08-06T15:46:57;19.40;99.90
7564;DHT22;3823;53.586;10.040;2023-08-06T15:49:25;19.40;99.90
7564;DHT22;3823;53.586;10.040;2023-08-06T15:51:51;19.40;99.90
7564;DHT22;3823;53.586;10.040;2023-08-06T15:54:18;19.40;99.90
7564;DHT22;3823;53.586;10.040;2023-08-06T15:56:44;19.40;99.90
7564;DHT22;3823;53.586;10.040;2023-08-06T15:59:23;19.30;99.90
7564;DHT22;3823;53.586;10.040;2023-08-06T16:01:49;19.30;99.90
7564;DHT22;3823;53.586;10.040;2023-08-06T16:04:14;19.30;99.90
7564;DHT22;3823;53.586;10.040;2023-08-06T16:06:40;19.20;99.90
7564;DHT22;3823;53.586;10.040;2023-08-06T16:09:05;19.20;99.90
7564;DHT22;3823;53.586;10.040;2023-08-06T16:11:31;19.20;99.90
7564;DHT22;3823;53.586;10.040;2023-08-06T16:13:56;19.20;99.90
7564;DHT22;3823;53.586;10.040;2023-08-06T16:16:22;19.20;99.90
7564;DHT22;3823;53.586;10.040;2023-08-06T16:18:48;19.20;99.90
7564;DHT22;3823;53.586;10.040;2023-08-06T16:21:13;19.20;99.90
7564;DHT22;3823;53.586;10.040;2023-08-06T16:23:39;19.20;99.90
7564;DHT22;3823;53.586;10.040;2023-08-06T16:26:04;19.20;99.90
7564;DHT22;3823;53.586;10.040;2023-08-06T16:28:30;19.20;99.90
7564;DHT22;3823;53.586;10.040;2023-08-06T16:30:56;19.10;99.90
7564;DHT22;3823;53.586;10.040;2023-08-06T16:33:21;19.20;99.90
7564;DHT22;3823;53.586;10.040;2023-08-06T16:35:47;19.20;99.90
7564;DHT22;3823;53.586;10.040;2023-08-06T16:38:13;19.20;99.90
7564;DHT22;3823;53.586;10.040;2023-08-06T16:40:40;19.20;99.90
7564;DHT22;3823;53.586;10.040;2023-08-06T16:43:06;19.20;99.90
7564;DHT22;3823;53.586;10.040;2023-08-06T16:45:31;19.20;99.90
7564;DHT22;3823;53.586;10.040;2023-08-06T16:48:03;19.20;99.90
7564;DHT22;3823;53.586;10.040;2023-08-06T16:50:29;19.20;99.90
7564;DHT22;3823;53.586;10.040;2023-08-06T16:52:54;19.20;99.90
7564;DHT22;3823;53.586;10.040;2023-08-06T16:55:21;19.20;99.90
7564;DHT22;3823;53.586;10.040;2023-08-06T16:57:47;19.20;99.90
7564;DHT22;3823;53.586;10.040;2023-08-06T17:00:13;19.10;99.90
7564;DHT22;3823;53.586;10.040;2023-08-06T17:02:38;19.10;99.90
7564;DHT22;3823;53.586;10.040;2023-08-06T17:05:04;19.10;99.90
7564;DHT22;3823;53.586;10.040;2023-08-06T17:07:30;19.10;99.90
7564;DHT22;3823;53.586;10.040;2023-08-06T17:09:57;19.10;99.90
7564;DHT22;3823;53.586;10.040;2023-08-06T17:12:22;19.10;99.90
7564;DHT22;3823;53.586;10.040;2023-08-06T17:14:48;19.10;99.90
7564;DHT22;3823;53.586;10.040;2023-08-06T17:17:14;19.10;99.90
7564;DHT22;3823;53.586;10.040;2023-08-06T17:19:42;19.00;99.90
7564;DHT22;3823;53.586;10.040;2023-08-06T17:22:07;19.00;99.90
7564;DHT22;3823;53.586;10.040;2023-08-06T17:24:33;19.00;99.90
7564;DHT22;3823;53.586;10.040;2023-08-06T17:26:58;19.00;99.90
7564;DHT22;3823;53.586;10.040;2023-08-06T17:29:25;18.90;99.90
7564;DHT22;3823;53.586;10.040;2023-08-06T17:31:51;18.90;99.90
7564;DHT22;3823;53.586;10.040;2023-08-06T17:34:17;18.90;99.90
7564;DHT22;3823;53.586;10.040;2023-08-06T17:36:43;18.90;99.90
7564;DHT22;3823;53.586;10.040;2023-08-06T17:39:08;18.90;99.90
7564;DHT22;3823;53.586;10.040;2023-08-06T17:41:34;18.90;99.90
7564;DHT22;3823;53.586;10.040;2023-08-06T17:43:59;18.80;99.90
7564;DHT22;3823;53.586;10.040;2023-08-06T17:46:25;18.80;99.90
7564;DHT22;3823;53.586;10.040;2023-08-06T17:48:51;18.80;99.90
7564;DHT22;3823;53.586;10.040;2023-08-06T17:51:20;18.90;99.90
7564;DHT22;3823;53.586;10.040;2023-08-06T17:53:46;18.90;99.90
7564;DHT22;3823;53.586;10.040;2023-08-06T17:56:11;18.90;1.00
7564;DHT22;3823;53.586;10.040;2023-08-06T17:58:37;18.90;1.00
7564;DHT22;3823;53.586;10.040;2023-08-06T18:01:02;18.80;1.00
7564;DHT22;3823;53.586;10.040;2023-08-06T18:03:28;18.80;1.00
7564;DHT22;3823;53.586;10.040;2023-08-06T18:05:55;18.80;1.00
7564;DHT22;3823;53.586;10.040;2023-08-06T18:08:21;18.80;1.00
7564;DHT22;3823;53.586;10.040;2023-08-06T18:10:46;18.80;1.00
7564;DHT22;3823;53.586;10.040;2023-08-06T18:13:12;18.80;99.90
7564;DHT22;3823;53.586;10.040;2023-08-06T18:15:37;18.70;99.90
7564;DHT22;3823;53.586;10.040;2023-08-06T18:18:03;18.70;1.00
7564;DHT22;3823;53.586;10.040;2023-08-06T18:20:28;18.70;99.90
7564;DHT22;3823;53.586;10.040;2023-08-06T18:22:55;18.70;99.90
7564;DHT22;3823;53.586;10.040;2023-08-06T18:25:20;18.70;99.90
7564;DHT22;3823;53.586;10.040;2023-08-06T18:27:47;18.70;99.90
7564;DHT22;3823;53.586;10.040;2023-08-06T18:30:12;18.60;1.00
7564;DHT22;3823;53.586;10.040;2023-08-06T18:32:38;18.60;1.00
7564;DHT22;3823;53.586;10.040;2023-08-06T18:35:03;18.60;1.00
7564;DHT22;3823;53.586;10.040;2023-08-06T18:37:29;18.60;99.90
7564;DHT22;3823;53.586;10.040;2023-08-06T18:39:54;18.60;1.00
7564;DHT22;3823;53.586;10.040;2023-08-06T18:42:27;18.60;99.90
7564;DHT22;3823;53.586;10.040;2023-08-06T18:44:53;18.60;1.00
7564;DHT22;3823;53.586;10.040;2023-08-06T18:47:19;18.60;1.00
7564;DHT22;3823;53.586;10.040;2023-08-06T18:49:45;18.50;1.00
7564;DHT22;3823;53.586;10.040;2023-08-06T18:52:10;18.50;1.00
7564;DHT22;3823;53.586;10.040;2023-08-06T18:54:36;18.50;1.00
7564;DHT22;3823;53.586;10.040;2023-08-06T18:57:02;18.50;1.00
7564;DHT22;3823;53.586;10.040;2023-08-06T18:59:27;18.40;1.00
7564;DHT22;3823;53.586;10.040;2023-08-06T19:01:53;18.40;1.00
7564;DHT22;3823;53.586;10.040;2023-08-06T19:04:18;18.40;1.00
7564;DHT22;3823;53.586;10.040;2023-08-06T19:06:44;18.40;1.00
7564;DHT22;3823;53.586;10.040;2023-08-06T19:09:10;18.40;1.00
7564;DHT22;3823;53.586;10.040;2023-08-06T19:11:35;18.40;1.00
7564;DHT22;3823;53.586;10.040;2023-08-06T19:14:01;18.30;1.00
7564;DHT22;3823;53.586;10.040;2023-08-06T19:16:27;18.30;1.00
7564;DHT22;3823;53.586;10.040;2023-08-06T19:18:53;18.30;1.00
7564;DHT22;3823;53.586;10.040;2023-08-06T19:21:18;18.30;1.00
7564;DHT22;3823;53.586;10.040;2023-08-06T19:23:44;18.30;1.00
7564;DHT22;3823;53.586;10.040;2023-08-06T19:26:09;18.20;1.00
7564;DHT22;3823;53.586;10.040;2023-08-06T19:28:35;18.30;1.00
7564;DHT22;3823;53.586;10.040;2023-08-06T19:31:00;18.20;1.00
7564;DHT22;3823;53.586;10.040;2023-08-06T19:33:26;18.20;1.00
7564;DHT22;3823;53.586;10.040;2023-08-06T19:35:53;18.20;1.00
7564;DHT22;3823;53.586;10.040;2023-08-06T19:38:20;18.20;1.00
7564;DHT22;3823;53.586;10.040;2023-08-06T19:40:46;18.20;1.00
7564;DHT22;3823;53.586;10.040;2023-08-06T19:43:12;18.20;1.00
7564;DHT22;3823;53.586;10.040;2023-08-06T19:45:38;18.10;1.00
7564;DHT22;3823;53.586;10.040;2023-08-06T19:48:05;18.10;1.00
7564;DHT22;3823;53.586;10.040;2023-08-06T19:50:32;18.00;1.00
7564;DHT22;3823;53.586;10.040;2023-08-06T19:52:57;18.00;1.00
7564;DHT22;3823;53.586;10.040;2023-08-06T19:55:23;18.00;1.00
7564;DHT22;3823;53.586;10.040;2023-08-06T19:57:48;18.00;1.00